createdAt,value
2024-04-21T00:02:14.611Z,97033.07
2024-04-21T00:04:42.612Z,97029.73
2024-04-21T00:07:10.747Z,97029.58
2024-04-21T00:09:39.538Z,97034.50
2024-04-21T00:12:07.886Z,97032.81
2024-04-21T00:14:35.767Z,97029.80
2024-04-21T00:17:04.097Z,97028.19
2024-04-21T00:19:32.175Z,97026.20
2024-04-21T00:22:00.156Z,97027.64
2024-04-21T00:24:31.289Z,97032.70
2024-04-21T00:26:59.219Z,97031.47
2024-04-21T00:29:27.178Z,97033.23
2024-04-21T00:31:55.274Z,97030.55
2024-04-21T00:34:23.378Z,97030.00
2024-04-21T00:36:51.310Z,97028.07
2024-04-21T00:39:19.301Z,97029.38
2024-04-21T00:41:47.278Z,97032.92
2024-04-21T00:44:15.318Z,97036.23
2024-04-21T00:46:43.264Z,97037.60
2024-04-21T00:49:11.441Z,97037.52
2024-04-21T00:51:39.435Z,97038.97
2024-04-21T00:54:07.582Z,97040.43
2024-04-21T00:56:35.556Z,97036.12
2024-04-21T00:59:03.608Z,97038.77
2024-04-21T01:01:31.678Z,97045.75
2024-04-21T01:04:00.205Z,97046.38
2024-04-21T01:06:28.344Z,97043.75
2024-04-21T01:08:56.232Z,97049.74
2024-04-21T01:11:24.413Z,97052.67
2024-04-21T01:13:52.492Z,97055.60
2024-04-21T01:16:20.628Z,97058.83
2024-04-21T01:18:48.571Z,97063.29
2024-04-21T01:21:16.961Z,97055.95
2024-04-21T01:23:45.096Z,97055.79
2024-04-21T01:26:13.029Z,97056.40
2024-04-21T01:28:41.033Z,97059.02
2024-04-21T01:31:09.198Z,97054.54
2024-04-21T01:33:37.247Z,97053.93
2024-04-21T01:36:05.401Z,97049.61
2024-04-21T01:38:33.439Z,97047.31
2024-04-21T01:41:01.380Z,97050.73
2024-04-21T01:43:29.418Z,97051.20
2024-04-21T01:45:57.376Z,97053.98
2024-04-21T01:48:25.296Z,97057.98
2024-04-21T01:50:53.728Z,97059.34
2024-04-21T01:53:21.712Z,97060.73
2024-04-21T01:55:49.639Z,97058.64
2024-04-21T01:58:17.739Z,97058.55
2024-04-21T02:00:45.805Z,97061.55
2024-04-21T02:03:13.891Z,97059.61
2024-04-21T02:05:41.957Z,97058.83
2024-04-21T02:08:10.031Z,97059.00
2024-04-21T02:10:38.072Z,97059.52
2024-04-21T02:13:06.067Z,97065.85
2024-04-21T02:15:34.118Z,97064.59
2024-04-21T02:18:02.239Z,97065.35
2024-04-21T02:20:30.332Z,97062.58
2024-04-21T02:22:58.193Z,97062.80
2024-04-21T02:25:27.377Z,97064.05
2024-04-21T02:27:55.911Z,97063.05
2024-04-21T02:30:26.412Z,97061.03
2024-04-21T02:32:54.793Z,97062.11
2024-04-21T02:35:22.778Z,97062.95
2024-04-21T02:37:50.767Z,97063.41
2024-04-21T02:40:19.005Z,97062.56
2024-04-21T02:42:47.186Z,97062.64
2024-04-21T02:45:15.871Z,97059.62
2024-04-21T02:47:43.824Z,97061.45
2024-04-21T02:50:11.721Z,97059.38
2024-04-21T02:52:39.593Z,97059.59
2024-04-21T02:55:07.764Z,97058.81
2024-04-21T02:57:35.766Z,97060.27
2024-04-21T03:00:03.969Z,97058.27
2024-04-21T03:02:31.992Z,97057.79
2024-04-21T03:04:59.891Z,97058.18
2024-04-21T03:07:27.786Z,97055.94
2024-04-21T03:09:55.785Z,97057.48
2024-04-21T03:12:23.877Z,97055.56
2024-04-21T03:14:51.807Z,97058.55
2024-04-21T03:17:22.294Z,97060.16
2024-04-21T03:19:50.339Z,97062.30
2024-04-21T03:22:18.462Z,97060.30
2024-04-21T03:24:46.460Z,97060.89
2024-04-21T03:27:14.365Z,97056.66
2024-04-21T03:29:42.387Z,97057.83
2024-04-21T03:32:10.465Z,97060.30
2024-04-21T03:34:38.496Z,97063.44
2024-04-21T03:37:06.455Z,97060.25
2024-04-21T03:39:35.334Z,97054.95
2024-04-21T03:42:03.431Z,97056.55
2024-04-21T03:44:31.482Z,97054.16
2024-04-21T03:46:59.685Z,97054.17
2024-04-21T03:49:27.582Z,97053.33
2024-04-21T03:51:55.534Z,97052.79
2024-04-21T03:54:23.581Z,97049.39
2024-04-21T03:56:51.592Z,97051.00
2024-04-21T03:59:19.550Z,97051.62
2024-04-21T04:01:47.614Z,97053.39
2024-04-21T04:04:15.823Z,97052.16
2024-04-21T04:06:44.429Z,97056.73
2024-04-21T04:09:12.403Z,97058.88
2024-04-21T04:11:40.345Z,97058.73
2024-04-21T04:14:08.285Z,97059.20
2024-04-21T04:16:36.316Z,97054.67
2024-04-21T04:19:04.288Z,97055.07
2024-04-21T04:21:32.549Z,97057.90
2024-04-21T04:24:00.643Z,97055.98
2024-04-21T04:26:28.655Z,97058.08
2024-04-21T04:28:56.775Z,97058.23
2024-04-21T04:31:24.928Z,97058.23
2024-04-21T04:33:53.029Z,97055.92
2024-04-21T04:36:21.274Z,97048.54
2024-04-21T04:38:49.303Z,97051.63
2024-04-21T04:41:17.327Z,97050.23
2024-04-21T04:43:45.339Z,97053.09
2024-04-21T04:46:13.424Z,97052.17
2024-04-21T04:48:41.358Z,97053.25
2024-04-21T04:51:09.321Z,97057.55
2024-04-21T04:53:37.301Z,97055.40
2024-04-21T04:56:05.573Z,97059.64
2024-04-21T04:58:33.545Z,97055.10
2024-04-21T05:01:01.580Z,97057.40
2024-04-21T05:03:29.458Z,97058.11
2024-04-21T05:05:57.467Z,97057.65
2024-04-21T05:08:25.414Z,97057.05
2024-04-21T05:10:53.495Z,97061.92
2024-04-21T05:13:21.668Z,97066.96
2024-04-21T05:15:49.773Z,97065.73
2024-04-21T05:18:17.833Z,97071.89
2024-04-21T05:20:45.872Z,97072.46
2024-04-21T05:23:13.867Z,97071.31
2024-04-21T05:25:41.817Z,97068.69
2024-04-21T05:28:09.766Z,97065.33
2024-04-21T05:30:38.571Z,97061.99
2024-04-21T05:33:06.711Z,97060.77
2024-04-21T05:35:34.639Z,97070.16
2024-04-21T05:38:02.594Z,97069.31
2024-04-21T05:40:30.834Z,97072.95
2024-04-21T05:42:58.784Z,97074.41
2024-04-21T05:45:26.893Z,97075.50
2024-04-21T05:47:56.031Z,97075.83
2024-04-21T05:50:24.031Z,97077.14
2024-04-21T05:52:52.011Z,97076.45
2024-04-21T05:55:20.048Z,97071.77
2024-04-21T05:57:48.888Z,97073.77
2024-04-21T06:00:17.026Z,97074.60
2024-04-21T06:02:45.068Z,97076.77
2024-04-21T06:05:13.598Z,97075.52
2024-04-21T06:07:41.613Z,97076.30
2024-04-21T06:10:10.012Z,97076.30
2024-04-21T06:12:38.217Z,97076.54
2024-04-21T06:15:06.623Z,97080.48
2024-04-21T06:17:34.662Z,97082.48
2024-04-21T06:20:04.851Z,97083.95
2024-04-21T06:22:32.802Z,97082.23
2024-04-21T06:25:00.892Z,97086.45
2024-04-21T06:27:30.735Z,97089.79
2024-04-21T06:29:58.894Z,97095.13
2024-04-21T06:32:27.021Z,97095.44
2024-04-21T06:34:54.959Z,97095.61
2024-04-21T06:37:23.124Z,97098.86
2024-04-21T06:39:51.014Z,97098.95
2024-04-21T06:42:19.012Z,97099.20
2024-04-21T06:44:47.008Z,97098.67
2024-04-21T06:47:15.244Z,97099.05
2024-04-21T06:49:43.170Z,97099.45
2024-04-21T06:52:11.099Z,97100.84
2024-04-21T06:54:40.082Z,97100.40
2024-04-21T06:57:08.346Z,97098.11
2024-04-21T06:59:36.484Z,97097.34
2024-04-21T07:02:04.783Z,97097.58
2024-04-21T07:04:33.562Z,97098.49
2024-04-21T07:07:01.667Z,97098.96
2024-04-21T07:09:29.701Z,97104.66
2024-04-21T07:11:57.634Z,97103.67
2024-04-21T07:14:25.581Z,97103.38
2024-04-21T07:16:53.624Z,97108.45
2024-04-21T07:19:22.331Z,97110.00
2024-04-21T07:21:50.372Z,97113.61
2024-04-21T07:24:18.280Z,97113.63
2024-04-21T07:26:46.216Z,97113.23
2024-04-21T07:29:14.122Z,97113.46
2024-04-21T07:31:42.076Z,97109.69
2024-04-21T07:34:10.475Z,97110.38
2024-04-21T07:36:38.571Z,97108.77
2024-04-21T07:39:06.526Z,97108.78
2024-04-21T07:41:35.567Z,97110.33
2024-04-21T07:44:03.666Z,97112.79
2024-04-21T07:46:31.804Z,97111.10
2024-04-21T07:49:00.066Z,97110.48
2024-04-21T07:51:28.084Z,97110.17
2024-04-21T07:53:55.971Z,97109.67
2024-04-21T07:56:24.059Z,97114.59
2024-04-21T07:58:51.977Z,97114.50
2024-04-21T08:01:19.965Z,97111.59
2024-04-21T08:03:48.050Z,97111.52
2024-04-21T08:06:16.130Z,97111.16
2024-04-21T08:08:45.989Z,97109.94
2024-04-21T08:11:15.516Z,97107.77
2024-04-21T08:13:43.645Z,97109.61
2024-04-21T08:16:11.728Z,97108.23
2024-04-21T08:18:39.951Z,97111.02
2024-04-21T08:21:07.969Z,97112.06
2024-04-21T08:23:36.459Z,97117.99
2024-04-21T08:26:04.651Z,97122.98
2024-04-21T08:28:32.603Z,97121.56
2024-04-21T08:31:00.578Z,97119.68
2024-04-21T08:33:28.515Z,97119.00
2024-04-21T08:35:57.069Z,97116.34
2024-04-21T08:38:26.997Z,97119.05
2024-04-21T08:40:55.019Z,97120.96
2024-04-21T08:43:26.671Z,97122.30
2024-04-21T08:45:55.488Z,97119.84
2024-04-21T08:48:23.982Z,97120.05
2024-04-21T08:50:51.969Z,97118.68
2024-04-21T08:53:19.830Z,97120.77
2024-04-21T08:55:48.962Z,97116.83
2024-04-21T08:58:17.764Z,97116.30
2024-04-21T09:00:49.354Z,97115.54
2024-04-21T09:03:17.527Z,97117.32
2024-04-21T09:05:50.992Z,97120.23
2024-04-21T09:08:18.987Z,97117.92
2024-04-21T09:10:47.071Z,97115.38
2024-04-21T09:13:15.576Z,97115.46
2024-04-21T09:15:43.564Z,97113.48
2024-04-21T09:18:11.622Z,97109.32
2024-04-21T09:20:39.525Z,97108.72
2024-04-21T09:23:10.602Z,97111.41
2024-04-21T09:25:38.582Z,97110.02
2024-04-21T09:28:06.839Z,97111.36
2024-04-21T09:30:35.012Z,97113.77
2024-04-21T09:33:04.792Z,97107.44
2024-04-21T09:35:32.913Z,97106.36
2024-04-21T09:38:01.047Z,97106.74
2024-04-21T09:40:29.060Z,97108.45
2024-04-21T09:42:57.463Z,97108.99
2024-04-21T09:45:25.835Z,97104.83
2024-04-21T09:47:53.885Z,97109.06
2024-04-21T09:50:22.653Z,97109.98
2024-04-21T09:52:51.917Z,97110.52
2024-04-21T09:55:20.147Z,97115.38
2024-04-21T09:57:52.179Z,97111.83
2024-04-21T10:00:20.566Z,97108.39
2024-04-21T10:02:49.779Z,97111.79
2024-04-21T10:05:18.360Z,97106.49
2024-04-21T10:07:46.334Z,97103.02
2024-04-21T10:10:19.430Z,97105.38
2024-04-21T10:12:47.900Z,97106.38
2024-04-21T10:15:18.143Z,97105.55
2024-04-21T10:17:59.714Z,97100.64
2024-04-21T10:20:31.382Z,97101.50
2024-04-21T10:23:12.474Z,97101.27
2024-04-21T10:25:41.474Z,97098.73
2024-04-21T10:28:13.928Z,97099.19
2024-04-21T10:30:41.997Z,97098.27
2024-04-21T10:33:12.066Z,97095.25
2024-04-21T10:35:41.399Z,97095.55
2024-04-21T10:38:16.370Z,97095.48
2024-04-21T10:40:48.059Z,97094.56
2024-04-21T10:43:16.794Z,97093.79
2024-04-21T10:45:45.023Z,97093.73
2024-04-21T10:48:13.248Z,97096.75
2024-04-21T10:50:41.444Z,97093.98
2024-04-21T10:53:09.448Z,97092.55
2024-04-21T10:55:37.614Z,97090.40
2024-04-21T10:58:07.115Z,97092.94
2024-04-21T11:00:38.847Z,97091.81
2024-04-21T11:03:07.151Z,97091.21
2024-04-21T11:05:43.236Z,97089.77
2024-04-21T11:08:11.243Z,97090.41
2024-04-21T11:10:41.792Z,97086.29
2024-04-21T11:13:10.418Z,97086.59
2024-04-21T11:15:42.176Z,97090.08
2024-04-21T11:18:10.256Z,97093.42
2024-04-21T11:20:39.690Z,97092.50
2024-04-21T11:23:08.690Z,97091.33
2024-04-21T11:25:37.387Z,97093.96
2024-04-21T11:28:12.123Z,97090.89
2024-04-21T11:30:40.785Z,97091.58
2024-04-21T11:33:08.845Z,97088.65
2024-04-21T11:35:36.908Z,97088.45
2024-04-21T11:38:05.784Z,97090.58
2024-04-21T11:40:39.327Z,97088.27
2024-04-21T11:43:10.207Z,97079.70
2024-04-21T11:45:39.500Z,97079.02
2024-04-21T11:48:08.716Z,97079.34
2024-04-21T11:50:38.828Z,97075.95
2024-04-21T11:53:06.950Z,97070.50
2024-04-21T11:55:35.355Z,97067.63
2024-04-21T11:58:03.740Z,97067.98
2024-04-21T12:00:31.774Z,97065.57
2024-04-21T12:02:59.811Z,97068.98
2024-04-21T12:05:27.893Z,97061.59
2024-04-21T12:07:55.831Z,97062.67
2024-04-21T12:10:23.865Z,97061.00
2024-04-21T12:12:51.948Z,97059.99
2024-04-21T12:15:19.959Z,97057.81
2024-04-21T12:17:48.036Z,97060.55
2024-04-21T12:20:16.150Z,97059.77
2024-04-21T12:22:49.986Z,97056.92
2024-04-21T12:25:18.130Z,97050.61
2024-04-21T12:27:46.138Z,97047.26
2024-04-21T12:30:14.332Z,97049.02
2024-04-21T12:32:42.327Z,97049.02
2024-04-21T12:35:10.303Z,97050.23
2024-04-21T12:37:38.230Z,97050.84
2024-04-21T12:40:07.392Z,97045.89
2024-04-21T12:42:35.469Z,97045.40
2024-04-21T12:45:03.719Z,97046.00
2024-04-21T12:47:32.901Z,97050.38
2024-04-21T12:50:00.827Z,97058.14
2024-04-21T12:52:29.829Z,97058.73
2024-04-21T12:54:57.895Z,97062.89
2024-04-21T12:57:25.981Z,97067.73
2024-04-21T12:59:53.981Z,97071.63
2024-04-21T13:02:22.076Z,97075.15
2024-04-21T13:04:50.068Z,97083.31
2024-04-21T13:07:18.164Z,97095.29
2024-04-21T13:09:47.303Z,97087.73
2024-04-21T13:12:15.284Z,97087.41
2024-04-21T13:14:43.231Z,97088.01
2024-04-21T13:17:11.285Z,97088.16
2024-04-21T13:19:40.541Z,97090.63
2024-04-21T13:22:08.564Z,97088.84
2024-04-21T13:24:36.569Z,97097.20
2024-04-21T13:27:04.557Z,97101.65
2024-04-21T13:29:32.503Z,97103.41
2024-04-21T13:32:01.295Z,97107.23
2024-04-21T13:34:29.244Z,97106.75
2024-04-21T13:36:57.408Z,97100.12
2024-04-21T13:39:25.405Z,97098.25
2024-04-21T13:41:54.761Z,97100.32
2024-04-21T13:44:22.722Z,97101.63
2024-04-21T13:46:50.947Z,97106.30
2024-04-21T13:49:19.152Z,97117.84
2024-04-21T13:51:47.107Z,97116.73
2024-04-21T13:54:15.117Z,97109.83
2024-04-21T13:56:43.118Z,97113.13
2024-04-21T13:59:11.063Z,97112.70
2024-04-21T14:01:39.190Z,97109.25
2024-04-21T14:04:07.423Z,97108.09
2024-04-21T14:06:35.523Z,97104.38
2024-04-21T14:09:04.025Z,97100.13
2024-04-21T14:11:31.946Z,97096.27
2024-04-21T14:13:59.940Z,97099.88
2024-04-21T14:16:28.784Z,97095.06
2024-04-21T14:18:58.693Z,97099.94
2024-04-21T14:21:27.061Z,97097.33
2024-04-21T14:23:55.719Z,97097.48
2024-04-21T14:26:24.675Z,97102.86
2024-04-21T14:28:53.190Z,97099.86
2024-04-21T14:31:21.274Z,97102.63
2024-04-21T14:33:50.554Z,97104.33
2024-04-21T14:36:18.747Z,97100.22
2024-04-21T14:38:46.830Z,97094.84
2024-04-21T14:41:15.859Z,97093.40
2024-04-21T14:43:43.745Z,97092.64
2024-04-21T14:46:11.790Z,97089.55
2024-04-21T14:48:39.798Z,97090.18
2024-04-21T14:51:08.288Z,97088.55
2024-04-21T14:53:36.323Z,97091.70
2024-04-21T14:56:08.167Z,97091.80
2024-04-21T14:58:36.063Z,97093.12
2024-04-21T15:01:04.367Z,97093.95
2024-04-21T15:03:32.460Z,97092.88
2024-04-21T15:06:00.483Z,97093.74
2024-04-21T15:08:28.610Z,97093.81
2024-04-21T15:10:56.713Z,97094.58
2024-04-21T15:13:24.766Z,97090.59
2024-04-21T15:15:52.743Z,97094.23
2024-04-21T15:18:20.810Z,97096.91
2024-04-21T15:20:48.848Z,97101.47
2024-04-21T15:23:17.190Z,97100.31
2024-04-21T15:25:45.112Z,97101.15
2024-04-21T15:28:13.142Z,97098.08
2024-04-21T15:30:41.196Z,97096.05
2024-04-21T15:33:09.374Z,97096.98
2024-04-21T15:35:37.484Z,97096.34
2024-04-21T15:38:06.905Z,97101.04
2024-04-21T15:40:34.846Z,97104.95
2024-04-21T15:43:06.455Z,97102.16
2024-04-21T15:45:36.139Z,97103.38
2024-04-21T15:48:04.521Z,97103.05
2024-04-21T15:50:32.639Z,97106.97
2024-04-21T15:53:00.711Z,97112.75
2024-04-21T15:55:29.707Z,97116.20
2024-04-21T15:57:57.871Z,97117.41
2024-04-21T16:00:25.878Z,97122.70
2024-04-21T16:02:54.004Z,97124.14
2024-04-21T16:05:23.752Z,97127.89
2024-04-21T16:07:52.425Z,97128.65
2024-04-21T16:10:20.374Z,97129.93
2024-04-21T16:12:50.418Z,97130.93
2024-04-21T16:15:19.801Z,97125.83
2024-04-21T16:17:49.462Z,97128.67
2024-04-21T16:20:17.558Z,97129.31
2024-04-21T16:22:46.939Z,97130.36
2024-04-21T16:25:15.308Z,97135.30
2024-04-21T16:27:43.493Z,97134.45
2024-04-21T16:30:11.612Z,97131.20
2024-04-21T16:32:40.587Z,97135.14
2024-04-21T16:35:09.864Z,97134.65
2024-04-21T16:37:40.148Z,97134.58
2024-04-21T16:40:09.793Z,97132.48
2024-04-21T16:42:38.205Z,97131.23
2024-04-21T16:45:06.730Z,97131.00
2024-04-21T16:47:36.045Z,97133.85
2024-04-21T16:50:04.481Z,97132.91
2024-04-21T16:52:32.940Z,97132.28
2024-04-21T16:55:01.421Z,97131.64
2024-04-21T16:57:29.856Z,97128.61
2024-04-21T16:59:58.111Z,97127.49
2024-04-21T17:02:26.525Z,97131.20
2024-04-21T17:04:56.887Z,97129.50
2024-04-21T17:07:24.992Z,97129.67
2024-04-21T17:09:53.509Z,97130.58
2024-04-21T17:12:24.088Z,97137.02
2024-04-21T17:14:52.047Z,97135.16
2024-04-21T17:17:20.330Z,97140.48
2024-04-21T17:19:48.612Z,97142.30
2024-04-21T17:22:16.617Z,97143.30
2024-04-21T17:24:45.547Z,97137.14
2024-04-21T17:27:13.768Z,97137.83
2024-04-21T17:29:41.794Z,97141.27
2024-04-21T17:32:09.894Z,97141.33
2024-04-21T17:34:38.073Z,97146.64
2024-04-21T17:37:06.240Z,97151.02
2024-04-21T17:39:34.273Z,97156.77
2024-04-21T17:42:02.323Z,97157.21
2024-04-21T17:44:30.444Z,97154.89
2024-04-21T17:46:58.424Z,97157.20
2024-04-21T17:49:26.471Z,97158.51
2024-04-21T17:51:54.377Z,97160.42
2024-04-21T17:54:22.363Z,97161.04
2024-04-21T17:56:50.731Z,97160.86
2024-04-21T17:59:18.960Z,97163.19
2024-04-21T18:01:47.055Z,97163.85
2024-04-21T18:04:15.287Z,97164.08
2024-04-21T18:06:44.534Z,97166.52
2024-04-21T18:09:12.564Z,97165.08
2024-04-21T18:11:40.831Z,97166.04
2024-04-21T18:14:09.098Z,97169.27
2024-04-21T18:16:37.433Z,97170.80
2024-04-21T18:19:06.167Z,97172.94
2024-04-21T18:21:35.011Z,97176.34
2024-04-21T18:24:03.159Z,97178.48
2024-04-21T18:26:31.276Z,97176.45
2024-04-21T18:28:59.317Z,97177.55
2024-04-21T18:31:27.348Z,97179.69
2024-04-21T18:33:55.310Z,97181.96
2024-04-21T18:36:23.344Z,97186.58
2024-04-21T18:38:51.312Z,97190.96
2024-04-21T18:41:19.346Z,97191.27
2024-04-21T18:43:47.450Z,97194.42
2024-04-21T18:46:15.635Z,97198.10
2024-04-21T18:48:43.716Z,97198.87
2024-04-21T18:51:11.663Z,97200.17
2024-04-21T18:53:41.212Z,97202.40
2024-04-21T18:56:09.952Z,97205.14
2024-04-21T18:58:38.028Z,97211.35
2024-04-21T19:01:09.427Z,97215.34
2024-04-21T19:03:37.605Z,97220.42
2024-04-21T19:06:09.683Z,97219.52
2024-04-21T19:08:37.874Z,97229.40
2024-04-21T19:11:06.732Z,97232.33
2024-04-21T19:13:35.011Z,97232.67
2024-04-21T19:16:06.530Z,97236.71
2024-04-21T19:18:34.830Z,97237.25
2024-04-21T19:21:03.642Z,97238.80
2024-04-21T19:23:31.867Z,97237.94
2024-04-21T19:25:59.828Z,97233.23
2024-04-21T19:28:27.818Z,97239.98
2024-04-21T19:30:55.903Z,97243.48
2024-04-21T19:33:25.133Z,97251.55
2024-04-21T19:35:53.183Z,97249.80
2024-04-21T19:38:21.244Z,97248.48
2024-04-21T19:40:51.299Z,97247.17
2024-04-21T19:43:19.958Z,97244.79
2024-04-21T19:45:48.177Z,97242.16
2024-04-21T19:48:16.147Z,97237.92
2024-04-21T19:50:44.548Z,97230.07
2024-04-21T19:53:12.655Z,97228.77
2024-04-21T19:55:40.702Z,97234.08
2024-04-21T19:58:08.672Z,97241.30
2024-04-21T20:00:36.834Z,97241.66
2024-04-21T20:03:07.894Z,97243.95
2024-04-21T20:05:41.785Z,97244.63
2024-04-21T20:08:10.230Z,97248.94
2024-04-21T20:10:38.397Z,97249.37
2024-04-21T20:13:09.383Z,97252.55
2024-04-21T20:15:56.078Z,97255.30
2024-04-21T20:18:40.580Z,97250.77
2024-04-21T20:21:08.510Z,97247.14
2024-04-21T20:23:37.297Z,97243.20
2024-04-21T20:26:07.194Z,97244.59
2024-04-21T20:28:35.260Z,97239.22
2024-04-21T20:31:10.479Z,97234.85
2024-04-21T20:33:41.981Z,97237.55
2024-04-21T20:36:16.206Z,97236.08
2024-04-21T20:38:44.116Z,97236.01
2024-04-21T20:41:15.538Z,97238.35
2024-04-21T20:43:44.448Z,97240.71
2024-04-21T20:46:13.021Z,97245.09
2024-04-21T20:48:41.010Z,97249.33
2024-04-21T20:51:09.338Z,97244.77
2024-04-21T20:53:37.503Z,97251.69
2024-04-21T20:56:08.766Z,97246.52
2024-04-21T20:58:45.123Z,97254.23
2024-04-21T21:01:20.064Z,97251.44
2024-04-21T21:03:49.651Z,97253.83
2024-04-21T21:06:19.717Z,97251.45
2024-04-21T21:08:48.119Z,97249.59
2024-04-21T21:11:16.319Z,97253.29
2024-04-21T21:13:44.461Z,97251.76
2024-04-21T21:16:12.536Z,97247.35
2024-04-21T21:18:40.651Z,97249.48
2024-04-21T21:21:08.636Z,97246.51
2024-04-21T21:23:36.688Z,97242.12
2024-04-21T21:26:04.733Z,97245.35
2024-04-21T21:28:32.890Z,97245.73
2024-04-21T21:31:02.420Z,97244.58
2024-04-21T21:33:30.542Z,97240.98
2024-04-21T21:35:58.461Z,97247.20
2024-04-21T21:38:27.351Z,97248.89
2024-04-21T21:40:56.759Z,97246.44
2024-04-21T21:43:25.391Z,97245.90
2024-04-21T21:45:53.552Z,97241.36
2024-04-21T21:48:21.598Z,97242.56
2024-04-21T21:50:49.673Z,97237.09
2024-04-21T21:53:17.568Z,97237.06
2024-04-21T21:55:45.533Z,97240.98
2024-04-21T21:58:13.519Z,97242.89
2024-04-21T22:00:41.563Z,97241.11
2024-04-21T22:03:11.020Z,97243.74
2024-04-21T22:05:39.540Z,97245.86
2024-04-21T22:08:07.729Z,97250.34
2024-04-21T22:10:35.771Z,97243.25
2024-04-21T22:13:04.077Z,97239.36
2024-04-21T22:15:32.190Z,97240.23
2024-04-21T22:18:00.187Z,97242.37
2024-04-21T22:20:28.249Z,97242.14
2024-04-21T22:22:56.219Z,97241.80
2024-04-21T22:25:24.228Z,97239.35
2024-04-21T22:27:52.419Z,97235.70
2024-04-21T22:30:20.431Z,97232.79
2024-04-21T22:32:49.475Z,97230.23
2024-04-21T22:35:17.593Z,97227.34
2024-04-21T22:37:45.957Z,97230.79
2024-04-21T22:40:13.894Z,97230.80
2024-04-21T22:42:43.346Z,97228.10
2024-04-21T22:45:11.886Z,97227.11
2024-04-21T22:47:40.121Z,97227.83
2024-04-21T22:50:08.197Z,97229.52
2024-04-21T22:52:36.503Z,97230.04
2024-04-21T22:55:05.184Z,97223.52
2024-04-21T22:57:33.141Z,97222.29
2024-04-21T23:00:01.010Z,97219.19
2024-04-21T23:02:29.139Z,97213.48
2024-04-21T23:04:57.242Z,97217.08
2024-04-21T23:07:25.170Z,97210.33
2024-04-21T23:09:53.357Z,97205.25
2024-04-21T23:12:21.416Z,97205.36
2024-04-21T23:14:49.468Z,97204.15
2024-04-21T23:17:17.472Z,97206.43
2024-04-21T23:19:45.660Z,97203.19
2024-04-21T23:22:13.875Z,97202.29
2024-04-21T23:24:41.938Z,97206.21
2024-04-21T23:27:09.853Z,97209.52
2024-04-21T23:29:37.934Z,97206.96
2024-04-21T23:32:06.178Z,97208.24
2024-04-21T23:34:34.416Z,97208.19
2024-04-21T23:37:02.446Z,97211.25
2024-04-21T23:39:30.324Z,97212.02
2024-04-21T23:41:58.290Z,97213.25
2024-04-21T23:44:26.240Z,97213.71
2024-04-21T23:46:54.262Z,97214.64
2024-04-21T23:49:22.290Z,97216.95
2024-04-21T23:51:50.281Z,97213.33
2024-04-21T23:54:18.309Z,97217.15
2024-04-21T23:56:46.253Z,97217.04
2024-04-21T23:59:14.315Z,97218.82
